sensor_id;sensor_type;location;lat;lon;timestamp;noise_LAeq;noise_LA_min;noise_LA_max;noise_LA01;noise_LA95
45651;Laerm;31365;48.858;8.530;2022-10-26T00:01:24;52.04;34.31;72.79;;
45651;Laerm;31365;48.858;8.530;2022-10-26T00:03:55;39.87;32.93;43.86;;
45651;Laerm;31365;48.858;8.530;2022-10-26T00:06:25;51.85;35.36;72.57;;
45651;Laerm;31365;48.858;8.530;2022-10-26T00:08:56;51.75;35.04;72.23;;
45651;Laerm;31365;48.858;8.530;2022-10-26T00:11:24;39.84;34.31;44.16;;
45651;Laerm;31365;48.858;8.530;2022-10-26T00:13:54;40.68;35.66;45.94;;
45651;Laerm;31365;48.858;8.530;2022-10-26T00:16:25;40.15;35.01;42.71;;
45651;Laerm;31365;48.858;8.530;2022-10-26T00:18:54;41.59;36.20;45.20;;
45651;Laerm;31365;48.858;8.530;2022-10-26T00:21:23;40.51;33.90;43.34;;
45651;Laerm;31365;48.858;8.530;2022-10-26T00:23:51;52.07;36.45;72.42;;
45651;Laerm;31365;48.858;8.530;2022-10-26T00:26:19;40.45;34.31;43.19;;
45651;Laerm;31365;48.858;8.530;2022-10-26T00:28:48;40.77;35.94;44.51;;
45651;Laerm;31365;48.858;8.530;2022-10-26T00:31:18;40.49;35.04;42.98;;
45651;Laerm;31365;48.858;8.530;2022-10-26T00:33:46;40.90;36.45;43.63;;
45651;Laerm;31365;48.858;8.530;2022-10-26T00:36:15;42.29;35.66;57.99;;
45651;Laerm;31365;48.858;8.530;2022-10-26T00:38:48;52.72;35.36;71.42;;
45651;Laerm;31365;48.858;8.530;2022-10-26T00:41:20;39.79;33.09;43.58;;
45651;Laerm;31365;48.858;8.530;2022-10-26T00:43:49;39.50;33.90;43.24;;
45651;Laerm;31365;48.858;8.530;2022-10-26T00:46:22;39.70;35.04;42.71;;
45651;Laerm;31365;48.858;8.530;2022-10-26T00:48:55;40.44;35.94;49.45;;
45651;Laerm;31365;48.858;8.530;2022-10-26T00:51:29;50.36;35.04;69.48;;
45651;Laerm;31365;48.858;8.530;2022-10-26T00:54:01;50.82;33.90;75.14;;
45651;Laerm;31365;48.858;8.530;2022-10-26T00:56:31;52.03;32.93;75.51;;
45651;Laerm;31365;48.858;8.530;2022-10-26T00:59:05;39.54;33.90;42.90;;
45651;Laerm;31365;48.858;8.530;2022-10-26T01:01:40;39.47;32.93;42.98;;
45651;Laerm;31365;48.858;8.530;2022-10-26T01:04:13;39.91;33.44;44.19;;
45651;Laerm;31365;48.858;8.530;2022-10-26T01:06:43;51.61;34.31;71.86;;
45651;Laerm;31365;48.858;8.530;2022-10-26T01:09:12;40.04;34.31;46.71;;
45651;Laerm;31365;48.858;8.530;2022-10-26T01:11:40;42.14;34.31;45.75;;
45651;Laerm;31365;48.858;8.530;2022-10-26T01:14:11;48.02;35.94;67.38;;
45651;Laerm;31365;48.858;8.530;2022-10-26T01:16:54;40.41;35.31;42.59;;
45651;Laerm;31365;48.858;8.530;2022-10-26T01:22:58;40.57;35.31;49.32;;
45651;Laerm;31365;48.858;8.530;2022-10-26T01:29:24;61.57;35.36;84.79;;
45651;Laerm;31365;48.858;8.530;2022-10-26T01:32:08;40.50;35.94;43.72;;
45651;Laerm;31365;48.858;8.530;2022-10-26T01:34:44;40.10;34.69;42.85;;
45651;Laerm;31365;48.858;8.530;2022-10-26T01:37:22;39.65;33.44;42.06;;
45651;Laerm;31365;48.858;8.530;2022-10-26T01:40:02;42.81;33.97;52.85;;
45651;Laerm;31365;48.858;8.530;2022-10-26T01:42:35;41.38;32.93;64.19;;
45651;Laerm;31365;48.858;8.530;2022-10-26T01:45:09;39.59;32.93;43.29;;
45651;Laerm;31365;48.858;8.530;2022-10-26T01:47:43;39.32;33.44;42.71;;
45651;Laerm;31365;48.858;8.530;2022-10-26T01:50:14;51.05;31.68;72.08;;
45651;Laerm;31365;48.858;8.530;2022-10-26T01:52:43;55.46;33.90;77.52;;
45651;Laerm;31365;48.858;8.530;2022-10-26T01:55:49;55.57;32.35;75.23;;
45651;Laerm;31365;48.858;8.530;2022-10-26T01:58:47;39.17;32.35;41.89;;
45651;Laerm;31365;48.858;8.530;2022-10-26T02:04:55;39.16;31.68;42.47;;
45651;Laerm;31365;48.858;8.530;2022-10-26T02:07:33;39.08;33.44;42.22;;
45651;Laerm;31365;48.858;8.530;2022-10-26T02:10:17;39.97;33.44;46.57;;
45651;Laerm;31365;48.858;8.530;2022-10-26T02:13:01;51.94;35.94;76.95;;
45651;Laerm;31365;48.858;8.530;2022-10-26T02:15:38;62.61;36.69;84.44;;
45651;Laerm;31365;48.858;8.530;2022-10-26T02:18:24;54.04;32.93;78.45;;
45651;Laerm;31365;48.858;8.530;2022-10-26T02:21:04;51.40;33.44;75.85;;
45651;Laerm;31365;48.858;8.530;2022-10-26T02:23:36;50.45;33.44;74.09;;
45651;Laerm;31365;48.858;8.530;2022-10-26T02:26:09;39.16;33.90;43.19;;
45651;Laerm;31365;48.858;8.530;2022-10-26T02:28:46;53.95;36.69;77.86;;
45651;Laerm;31365;48.858;8.530;2022-10-26T02:31:18;54.62;34.69;74.61;;
45651;Laerm;31365;48.858;8.530;2022-10-26T02:33:50;53.40;34.69;73.54;;
45651;Laerm;31365;48.858;8.530;2022-10-26T02:36:27;42.41;37.70;49.25;;
45651;Laerm;31365;48.858;8.530;2022-10-26T02:38:57;52.97;30.89;75.66;;
45651;Laerm;31365;48.858;8.530;2022-10-26T02:41:28;55.03;35.36;76.75;;
45651;Laerm;31365;48.858;8.530;2022-10-26T02:44:05;39.85;34.69;43.86;;
45651;Laerm;31365;48.858;8.530;2022-10-26T02:46:36;50.21;35.01;70.56;;
45651;Laerm;31365;48.858;8.530;2022-10-26T02:49:05;39.27;34.31;42.03;;
45651;Laerm;31365;48.858;8.530;2022-10-26T02:51:41;58.41;33.44;79.04;;
45651;Laerm;31365;48.858;8.530;2022-10-26T02:54:18;66.92;37.12;86.84;;
45651;Laerm;31365;48.858;8.530;2022-10-26T02:56:56;59.95;35.66;80.13;;
45651;Laerm;31365;48.858;8.530;2022-10-26T02:59:33;54.41;34.69;74.85;;
45651;Laerm;31365;48.858;8.530;2022-10-26T03:02:04;50.58;34.31;69.73;;
45651;Laerm;31365;48.858;8.530;2022-10-26T03:04:34;53.50;35.36;76.96;;
45651;Laerm;31365;48.858;8.530;2022-10-26T03:07:03;55.60;36.45;72.79;;
45651;Laerm;31365;48.858;8.530;2022-10-26T03:09:32;60.91;34.69;81.24;;
45651;Laerm;31365;48.858;8.530;2022-10-26T03:12:00;57.90;34.69;74.64;;
45651;Laerm;31365;48.858;8.530;2022-10-26T03:14:28;55.11;35.66;73.54;;
45651;Laerm;31365;48.858;8.530;2022-10-26T03:16:56;51.06;35.94;73.07;;
45651;Laerm;31365;48.858;8.530;2022-10-26T03:19:25;55.96;37.70;75.98;;
45651;Laerm;31365;48.858;8.530;2022-10-26T03:21:53;57.18;39.08;74.34;;
45651;Laerm;31365;48.858;8.530;2022-10-26T03:24:23;57.55;35.36;80.15;;
45651;Laerm;31365;48.858;8.530;2022-10-26T03:26:51;39.90;35.04;43.58;;
45651;Laerm;31365;48.858;8.530;2022-10-26T03:29:24;57.50;36.45;75.72;;
45651;Laerm;31365;48.858;8.530;2022-10-26T03:31:52;57.25;36.45;77.00;;
45651;Laerm;31365;48.858;8.530;2022-10-26T03:34:21;57.45;37.32;77.34;;
45651;Laerm;31365;48.858;8.530;2022-10-26T03:36:50;59.47;36.45;78.11;;
45651;Laerm;31365;48.858;8.530;2022-10-26T03:39:19;60.24;36.91;76.72;;
45651;Laerm;31365;48.858;8.530;2022-10-26T03:41:49;56.00;33.90;72.46;;
45651;Laerm;31365;48.858;8.530;2022-10-26T03:44:17;58.18;34.31;80.20;;
45651;Laerm;31365;48.858;8.530;2022-10-26T03:46:45;60.04;37.52;81.63;;
45651;Laerm;31365;48.858;8.530;2022-10-26T03:49:14;60.69;36.69;78.55;;
45651;Laerm;31365;48.858;8.530;2022-10-26T03:54:10;58.56;36.69;75.01;;
45651;Laerm;31365;48.858;8.530;2022-10-26T03:56:39;61.11;37.70;76.17;;
45651;Laerm;31365;48.858;8.530;2022-10-26T03:59:09;57.27;36.69;73.12;;
45651;Laerm;31365;48.858;8.530;2022-10-26T04:01:37;59.30;37.70;77.81;;
45651;Laerm;31365;48.858;8.530;2022-10-26T04:04:06;61.98;42.35;84.95;;
45651;Laerm;31365;48.858;8.530;2022-10-26T04:06:35;61.09;39.68;76.17;;
45651;Laerm;31365;48.858;8.530;2022-10-26T04:09:04;62.64;40.98;77.79;;
45651;Laerm;31365;48.858;8.530;2022-10-26T04:11:34;59.82;37.52;76.13;;
45651;Laerm;31365;48.858;8.530;2022-10-26T04:14:02;61.30;39.58;76.81;;
45651;Laerm;31365;48.858;8.530;2022-10-26T04:16:32;60.96;40.43;76.22;;
45651;Laerm;31365;48.858;8.530;2022-10-26T04:19:00;60.69;40.03;78.54;;
45651;Laerm;31365;48.858;8.530;2022-10-26T04:21:29;66.03;40.62;83.21;;
45651;Laerm;31365;48.858;8.530;2022-10-26T04:23:58;61.10;42.53;73.74;;
45651;Laerm;31365;48.858;8.530;2022-10-26T04:26:27;63.43;41.38;78.49;;
45651;Laerm;31365;48.858;8.530;2022-10-26T04:28:55;64.51;39.81;83.35;;
45651;Laerm;31365;48.858;8.530;2022-10-26T04:31:23;64.52;42.71;84.38;;
45651;Laerm;31365;48.858;8.530;2022-10-26T04:33:53;61.71;38.52;78.85;;
45651;Laerm;31365;48.858;8.530;2022-10-26T04:36:21;61.43;40.03;78.28;;
45651;Laerm;31365;48.858;8.530;2022-10-26T04:38:50;63.25;40.89;79.46;;
45651;Laerm;31365;48.858;8.530;2022-10-26T04:41:18;64.38;40.43;76.85;;
45651;Laerm;31365;48.858;8.530;2022-10-26T04:43:46;60.41;38.52;77.86;;
45651;Laerm;31365;48.858;8.530;2022-10-26T04:46:14;64.68;43.58;78.32;;
45651;Laerm;31365;48.858;8.530;2022-10-26T04:48:43;61.52;38.37;77.03;;
45651;Laerm;31365;48.858;8.530;2022-10-26T04:51:12;63.52;42.03;77.53;;
45651;Laerm;31365;48.858;8.530;2022-10-26T04:53:41;64.63;41.14;82.52;;
45651;Laerm;31365;48.858;8.530;2022-10-26T04:56:09;66.45;42.53;89.19;;
45651;Laerm;31365;48.858;8.530;2022-10-26T04:58:38;64.40;43.39;83.02;;
45651;Laerm;31365;48.858;8.530;2022-10-26T05:01:06;60.81;43.81;75.40;;
45651;Laerm;31365;48.858;8.530;2022-10-26T05:03:35;63.63;42.29;80.18;;
45651;Laerm;31365;48.858;8.530;2022-10-26T05:06:04;63.21;42.76;75.94;;
45651;Laerm;31365;48.858;8.530;2022-10-26T05:08:34;63.50;43.14;80.44;;
45651;Laerm;31365;48.858;8.530;2022-10-26T05:11:02;65.12;45.69;80.39;;
45651;Laerm;31365;48.858;8.530;2022-10-26T05:13:31;65.20;43.39;79.22;;
45651;Laerm;31365;48.858;8.530;2022-10-26T05:15:59;62.96;42.35;79.04;;
45651;Laerm;31365;48.858;8.530;2022-10-26T05:18:27;62.99;43.81;76.47;;
45651;Laerm;31365;48.858;8.530;2022-10-26T05:20:55;63.39;42.65;77.26;;
45651;Laerm;31365;48.858;8.530;2022-10-26T05:23:24;63.97;42.16;83.07;;
45651;Laerm;31365;48.858;8.530;2022-10-26T05:25:54;62.46;41.38;76.19;;
45651;Laerm;31365;48.858;8.530;2022-10-26T05:28:23;64.15;41.75;76.75;;
45651;Laerm;31365;48.858;8.530;2022-10-26T05:30:52;62.42;43.09;76.71;;
45651;Laerm;31365;48.858;8.530;2022-10-26T05:33:20;60.99;42.47;76.98;;
45651;Laerm;31365;48.858;8.530;2022-10-26T05:35:53;64.21;40.71;80.14;;
45651;Laerm;31365;48.858;8.530;2022-10-26T05:38:22;63.15;41.75;76.12;;
45651;Laerm;31365;48.858;8.530;2022-10-26T05:40:52;63.05;40.89;76.19;;
45651;Laerm;31365;48.858;8.530;2022-10-26T05:43:23;62.70;42.65;80.72;;
45651;Laerm;31365;48.858;8.530;2022-10-26T05:45:53;65.47;43.44;80.28;;
45651;Laerm;31365;48.858;8.530;2022-10-26T05:48:22;63.79;43.04;77.18;;
45651;Laerm;31365;48.858;8.530;2022-10-26T05:50:50;64.89;41.53;78.45;;
45651;Laerm;31365;48.858;8.530;2022-10-26T05:53:19;62.94;41.68;78.76;;
45651;Laerm;31365;48.858;8.530;2022-10-26T05:58:17;61.29;40.43;77.63;;
45651;Laerm;31365;48.858;8.530;2022-10-26T06:01:01;64.08;41.14;77.59;;
45651;Laerm;31365;48.858;8.530;2022-10-26T06:03:50;65.91;43.99;84.09;;
45651;Laerm;31365;48.858;8.530;2022-10-26T06:06:22;64.73;44.19;87.10;;
45651;Laerm;31365;48.858;8.530;2022-10-26T06:08:51;64.69;43.55;82.54;;
45651;Laerm;31365;48.858;8.530;2022-10-26T06:11:20;63.89;47.98;80.09;;
45651;Laerm;31365;48.858;8.530;2022-10-26T06:13:49;64.50;45.01;80.61;;
45651;Laerm;31365;48.858;8.530;2022-10-26T06:16:34;65.82;44.83;82.97;;
45651;Laerm;31365;48.858;8.530;2022-10-26T06:19:19;64.83;42.65;82.54;;
45651;Laerm;31365;48.858;8.530;2022-10-26T06:22:10;63.16;41.06;77.69;;
45651;Laerm;31365;48.858;8.530;2022-10-26T06:24:54;61.18;41.38;76.67;;
45651;Laerm;31365;48.858;8.530;2022-10-26T06:27:38;64.38;44.58;79.28;;
45651;Laerm;31365;48.858;8.530;2022-10-26T06:30:11;65.50;43.63;79.87;;
45651;Laerm;31365;48.858;8.530;2022-10-26T06:32:44;62.77;41.53;81.49;;
45651;Laerm;31365;48.858;8.530;2022-10-26T06:35:25;64.29;43.44;79.20;;
45651;Laerm;31365;48.858;8.530;2022-10-26T06:38:03;63.36;44.62;77.33;;
45651;Laerm;31365;48.858;8.530;2022-10-26T06:40:36;65.87;45.45;81.11;;
45651;Laerm;31365;48.858;8.530;2022-10-26T06:43:15;64.12;40.98;81.57;;
45651;Laerm;31365;48.858;8.530;2022-10-26T06:45:51;66.02;44.15;80.03;;
45651;Laerm;31365;48.858;8.530;2022-10-26T06:48:28;60.01;41.68;73.33;;
45651;Laerm;31365;48.858;8.530;2022-10-26T06:50:58;69.96;44.03;91.26;;
45651;Laerm;31365;48.858;8.530;2022-10-26T06:53:33;61.69;43.54;77.92;;
45651;Laerm;31365;48.858;8.530;2022-10-26T06:56:04;62.38;40.53;79.84;;
45651;Laerm;31365;48.858;8.530;2022-10-26T06:58:35;59.86;40.23;76.04;;
45651;Laerm;31365;48.858;8.530;2022-10-26T07:01:05;62.29;40.13;75.66;;
45651;Laerm;31365;48.858;8.530;2022-10-26T07:03:35;60.06;43.54;74.25;;
45651;Laerm;31365;48.858;8.530;2022-10-26T07:06:04;63.02;43.58;75.64;;
45651;Laerm;31365;48.858;8.530;2022-10-26T07:08:32;63.31;42.82;79.02;;
45651;Laerm;31365;48.858;8.530;2022-10-26T07:11:01;62.08;43.44;76.65;;
45651;Laerm;31365;48.858;8.530;2022-10-26T07:13:30;59.07;41.75;71.98;;
45651;Laerm;31365;48.858;8.530;2022-10-26T07:15:59;61.81;43.94;77.16;;
45651;Laerm;31365;48.858;8.530;2022-10-26T07:18:28;65.25;40.89;84.62;;
45651;Laerm;31365;48.858;8.530;2022-10-26T07:20:58;65.55;43.81;80.22;;
45651;Laerm;31365;48.858;8.530;2022-10-26T07:23:26;65.19;44.15;85.20;;
45651;Laerm;31365;48.858;8.530;2022-10-26T07:25:59;66.98;42.09;85.27;;
45651;Laerm;31365;48.858;8.530;2022-10-26T07:28:28;63.14;40.53;77.58;;
45651;Laerm;31365;48.858;8.530;2022-10-26T07:30:57;60.65;41.61;75.52;;
45651;Laerm;31365;48.858;8.530;2022-10-26T07:33:26;62.51;42.16;75.08;;
45651;Laerm;31365;48.858;8.530;2022-10-26T07:35:54;60.19;40.71;76.81;;
45651;Laerm;31365;48.858;8.530;2022-10-26T07:38:24;62.01;42.16;77.33;;
45651;Laerm;31365;48.858;8.530;2022-10-26T07:40:52;58.74;40.71;74.01;;
45651;Laerm;31365;48.858;8.530;2022-10-26T07:43:21;63.82;41.61;80.14;;
45651;Laerm;31365;48.858;8.530;2022-10-26T07:45:50;58.96;41.14;74.84;;
45651;Laerm;31365;48.858;8.530;2022-10-26T07:48:18;62.61;41.53;79.68;;
45651;Laerm;31365;48.858;8.530;2022-10-26T07:50:46;64.22;44.15;78.38;;
45651;Laerm;31365;48.858;8.530;2022-10-26T07:53:15;64.23;42.59;79.68;;
45651;Laerm;31365;48.858;8.530;2022-10-26T07:55:52;58.77;41.14;76.38;;
45651;Laerm;31365;48.858;8.530;2022-10-26T07:58:22;60.68;41.38;74.05;;
45651;Laerm;31365;48.858;8.530;2022-10-26T08:00:53;64.42;42.93;85.30;;
45651;Laerm;31365;48.858;8.530;2022-10-26T08:03:21;62.59;45.20;79.03;;
45651;Laerm;31365;48.858;8.530;2022-10-26T08:05:50;60.09;41.53;75.95;;
45651;Laerm;31365;48.858;8.530;2022-10-26T08:08:21;60.38;40.03;77.39;;
45651;Laerm;31365;48.858;8.530;2022-10-26T08:10:51;67.92;45.33;87.16;;
45651;Laerm;31365;48.858;8.530;2022-10-26T08:13:19;61.16;39.70;76.27;;
45651;Laerm;31365;48.858;8.530;2022-10-26T08:15:47;64.05;39.70;80.96;;
45651;Laerm;31365;48.858;8.530;2022-10-26T08:18:16;62.86;44.23;77.87;;
45651;Laerm;31365;48.858;8.530;2022-10-26T08:20:44;63.58;44.27;78.34;;
45651;Laerm;31365;48.858;8.530;2022-10-26T08:23:12;59.11;42.29;79.26;;
45651;Laerm;31365;48.858;8.530;2022-10-26T08:25:40;61.52;42.53;74.16;;
45651;Laerm;31365;48.858;8.530;2022-10-26T08:28:10;61.23;40.33;75.54;;
45651;Laerm;31365;48.858;8.530;2022-10-26T08:30:38;62.09;42.03;78.08;;
45651;Laerm;31365;48.858;8.530;2022-10-26T08:33:08;62.48;42.53;77.74;;
45651;Laerm;31365;48.858;8.530;2022-10-26T08:35:38;61.87;40.98;78.03;;
45651;Laerm;31365;48.858;8.530;2022-10-26T08:38:06;61.62;39.70;79.61;;
45651;Laerm;31365;48.858;8.530;2022-10-26T08:40:38;63.23;42.03;82.71;;
45651;Laerm;31365;48.858;8.530;2022-10-26T08:43:18;62.70;42.47;79.63;;
45651;Laerm;31365;48.858;8.530;2022-10-26T08:45:55;68.03;44.62;80.87;;
45651;Laerm;31365;48.858;8.530;2022-10-26T08:48:32;61.89;42.41;76.60;;
45651;Laerm;31365;48.858;8.530;2022-10-26T08:51:08;63.17;41.22;76.43;;
45651;Laerm;31365;48.858;8.530;2022-10-26T08:53:47;65.37;41.96;84.72;;
45651;Laerm;31365;48.858;8.530;2022-10-26T08:56:20;62.48;39.92;79.38;;
45651;Laerm;31365;48.858;8.530;2022-10-26T08:58:56;59.19;41.06;75.55;;
45651;Laerm;31365;48.858;8.530;2022-10-26T09:01:29;59.02;40.13;75.66;;
45651;Laerm;31365;48.858;8.530;2022-10-26T09:04:01;65.99;41.22;83.00;;
45651;Laerm;31365;48.858;8.530;2022-10-26T09:06:42;62.87;41.88;76.34;;
45651;Laerm;31365;48.858;8.530;2022-10-26T09:09:20;62.18;41.14;75.54;;
45651;Laerm;31365;48.858;8.530;2022-10-26T09:12:01;60.93;40.71;76.83;;
45651;Laerm;31365;48.858;8.530;2022-10-26T09:14:46;65.47;42.76;85.33;;
45651;Laerm;31365;48.858;8.530;2022-10-26T09:17:36;60.51;40.23;77.77;;
45651;Laerm;31365;48.858;8.530;2022-10-26T09:20:44;61.65;40.98;81.31;;
45651;Laerm;31365;48.858;8.530;2022-10-26T09:23:30;61.51;41.38;77.95;;
45651;Laerm;31365;48.858;8.530;2022-10-26T09:26:12;62.17;41.14;78.18;;
45651;Laerm;31365;48.858;8.530;2022-10-26T09:28:45;60.52;40.62;76.29;;
45651;Laerm;31365;48.858;8.530;2022-10-26T09:31:17;64.95;40.80;80.07;;
45651;Laerm;31365;48.858;8.530;2022-10-26T09:33:46;62.54;42.29;77.59;;
45651;Laerm;31365;48.858;8.530;2022-10-26T09:36:19;62.33;40.98;81.17;;
45651;Laerm;31365;48.858;8.530;2022-10-26T09:38:56;59.20;40.13;76.49;;
45651;Laerm;31365;48.858;8.530;2022-10-26T09:41:32;61.30;40.54;75.89;;
45651;Laerm;31365;48.858;8.530;2022-10-26T09:44:10;61.21;38.81;76.63;;
45651;Laerm;31365;48.858;8.530;2022-10-26T09:46:53;63.24;41.61;80.57;;
45651;Laerm;31365;48.858;8.530;2022-10-26T09:49:32;62.56;42.35;79.62;;
45651;Laerm;31365;48.858;8.530;2022-10-26T09:52:03;66.24;42.76;85.09;;
45651;Laerm;31365;48.858;8.530;2022-10-26T09:54:31;56.44;40.80;71.64;;
45651;Laerm;31365;48.858;8.530;2022-10-26T09:59:33;62.06;41.22;77.66;;
45651;Laerm;31365;48.858;8.530;2022-10-26T10:02:37;62.31;40.53;75.46;;
45651;Laerm;31365;48.858;8.530;2022-10-26T10:05:29;61.74;41.46;74.90;;
45651;Laerm;31365;48.858;8.530;2022-10-26T10:08:20;61.08;39.92;76.78;;
45651;Laerm;31365;48.858;8.530;2022-10-26T10:11:02;66.38;42.53;87.80;;
45651;Laerm;31365;48.858;8.530;2022-10-26T10:13:35;63.51;41.06;83.28;;
45651;Laerm;31365;48.858;8.530;2022-10-26T10:16:09;61.94;41.53;78.07;;
45651;Laerm;31365;48.858;8.530;2022-10-26T10:18:40;60.89;41.22;79.00;;
45651;Laerm;31365;48.858;8.530;2022-10-26T10:23:49;61.96;39.58;76.92;;
45651;Laerm;31365;48.858;8.530;2022-10-26T10:26:19;59.50;41.14;78.36;;
45651;Laerm;31365;48.858;8.530;2022-10-26T10:28:57;61.48;41.61;76.38;;
45651;Laerm;31365;48.858;8.530;2022-10-26T10:31:31;58.04;40.53;73.87;;
45651;Laerm;31365;48.858;8.530;2022-10-26T10:34:15;62.30;40.13;79.36;;
45651;Laerm;31365;48.858;8.530;2022-10-26T10:36:44;63.58;41.89;78.33;;
45651;Laerm;31365;48.858;8.530;2022-10-26T10:39:34;62.00;39.34;78.84;;
45651;Laerm;31365;48.858;8.530;2022-10-26T10:42:13;62.94;42.47;81.45;;
45651;Laerm;31365;48.858;8.530;2022-10-26T10:44:45;63.43;40.62;82.86;;
45651;Laerm;31365;48.858;8.530;2022-10-26T10:47:23;64.17;44.35;79.04;;
45651;Laerm;31365;48.858;8.530;2022-10-26T10:50:01;59.18;40.03;76.17;;
45651;Laerm;31365;48.858;8.530;2022-10-26T10:52:33;65.57;43.44;81.96;;
45651;Laerm;31365;48.858;8.530;2022-10-26T10:55:17;60.13;43.39;76.40;;
45651;Laerm;31365;48.858;8.530;2022-10-26T10:58:07;61.08;41.06;76.66;;
45651;Laerm;31365;48.858;8.530;2022-10-26T11:00:47;63.76;39.46;81.19;;
45651;Laerm;31365;48.858;8.530;2022-10-26T11:03:32;62.05;41.38;79.16;;
45651;Laerm;31365;48.858;8.530;2022-10-26T11:06:17;61.27;40.43;77.28;;
45651;Laerm;31365;48.858;8.530;2022-10-26T11:08:52;60.69;39.78;80.25;;
45651;Laerm;31365;48.858;8.530;2022-10-26T11:11:29;61.10;42.59;78.96;;
45651;Laerm;31365;48.858;8.530;2022-10-26T11:14:04;70.50;44.83;88.50;;
45651;Laerm;31365;48.858;8.530;2022-10-26T11:16:37;62.08;41.38;75.53;;
45651;Laerm;31365;48.858;8.530;2022-10-26T11:19:17;62.54;40.43;77.91;;
45651;Laerm;31365;48.858;8.530;2022-10-26T11:21:52;62.19;41.61;77.46;;
45651;Laerm;31365;48.858;8.530;2022-10-26T11:24:27;63.20;40.53;77.87;;
45651;Laerm;31365;48.858;8.530;2022-10-26T11:27:03;60.44;39.21;75.02;;
45651;Laerm;31365;48.858;8.530;2022-10-26T11:29:44;61.23;41.82;80.96;;
45651;Laerm;31365;48.858;8.530;2022-10-26T11:32:21;57.69;40.98;72.35;;
45651;Laerm;31365;48.858;8.530;2022-10-26T11:34:59;60.64;39.92;75.56;;
45651;Laerm;31365;48.858;8.530;2022-10-26T11:37:37;60.99;42.88;79.63;;
45651;Laerm;31365;48.858;8.530;2022-10-26T11:40:34;62.15;39.46;80.02;;
45651;Laerm;31365;48.858;8.530;2022-10-26T11:43:15;62.55;39.89;79.89;;
45651;Laerm;31365;48.858;8.530;2022-10-26T11:46:02;62.16;42.88;78.76;;
45651;Laerm;31365;48.858;8.530;2022-10-26T11:48:40;61.14;40.71;76.66;;
45651;Laerm;31365;48.858;8.530;2022-10-26T11:51:19;61.73;39.08;80.90;;
45651;Laerm;31365;48.858;8.530;2022-10-26T11:53:51;60.08;38.05;73.33;;
45651;Laerm;31365;48.858;8.530;2022-10-26T11:56:29;61.75;39.08;78.52;;
45651;Laerm;31365;48.858;8.530;2022-10-26T11:58:59;63.55;40.89;75.77;;
45651;Laerm;31365;48.858;8.530;2022-10-26T12:01:29;59.00;39.21;75.18;;
45651;Laerm;31365;48.858;8.530;2022-10-26T12:04:00;58.87;38.05;75.40;;
45651;Laerm;31365;48.858;8.530;2022-10-26T12:06:32;59.86;40.80;75.61;;
45651;Laerm;31365;48.858;8.530;2022-10-26T12:09:09;60.69;40.71;75.63;;
45651;Laerm;31365;48.858;8.530;2022-10-26T12:11:47;58.21;40.62;80.72;;
45651;Laerm;31365;48.858;8.530;2022-10-26T12:14:23;62.95;41.46;80.59;;
45651;Laerm;31365;48.858;8.530;2022-10-26T12:17:04;58.91;40.23;74.19;;
45651;Laerm;31365;48.858;8.530;2022-10-26T12:19:45;62.51;38.81;80.41;;
45651;Laerm;31365;48.858;8.530;2022-10-26T12:22:18;58.69;39.58;72.82;;
45651;Laerm;31365;48.858;8.530;2022-10-26T12:25:07;62.79;44.47;76.28;;
45651;Laerm;31365;48.858;8.530;2022-10-26T12:27:53;61.82;39.46;77.20;;
45651;Laerm;31365;48.858;8.530;2022-10-26T12:30:28;61.00;42.41;77.75;;
45651;Laerm;31365;48.858;8.530;2022-10-26T12:32:58;64.36;40.13;84.22;;
45651;Laerm;31365;48.858;8.530;2022-10-26T12:35:50;59.74;39.21;74.25;;
45651;Laerm;31365;48.858;8.530;2022-10-26T12:38:56;59.57;41.38;71.15;;
45651;Laerm;31365;48.858;8.530;2022-10-26T12:41:29;60.53;39.21;75.25;;
45651;Laerm;31365;48.858;8.530;2022-10-26T12:44:32;59.79;41.68;73.54;;
45651;Laerm;31365;48.858;8.530;2022-10-26T12:47:02;63.94;42.16;83.05;;
45651;Laerm;31365;48.858;8.530;2022-10-26T12:50:00;62.15;41.82;82.34;;
45651;Laerm;31365;48.858;8.530;2022-10-26T12:52:41;62.14;43.09;76.45;;
45651;Laerm;31365;48.858;8.530;2022-10-26T12:55:49;68.06;42.82;85.51;;
45651;Laerm;31365;48.858;8.530;2022-10-26T12:58:56;60.95;39.58;79.33;;
45651;Laerm;31365;48.858;8.530;2022-10-26T13:02:01;65.28;41.30;91.71;;
45651;Laerm;31365;48.858;8.530;2022-10-26T13:05:24;63.46;44.38;75.70;;
45651;Laerm;31365;48.858;8.530;2022-10-26T13:08:02;62.99;41.82;78.92;;
45651;Laerm;31365;48.858;8.530;2022-10-26T13:10:33;60.47;41.38;78.79;;
45651;Laerm;31365;48.858;8.530;2022-10-26T13:13:04;64.62;41.61;79.27;;
45651;Laerm;31365;48.858;8.530;2022-10-26T13:15:39;60.63;42.03;79.08;;
45651;Laerm;31365;48.858;8.530;2022-10-26T13:18:13;67.13;42.65;85.50;;
45651;Laerm;31365;48.858;8.530;2022-10-26T13:20:59;60.22;45.91;76.98;;
45651;Laerm;31365;48.858;8.530;2022-10-26T13:23:33;59.92;45.11;74.11;;
45651;Laerm;31365;48.858;8.530;2022-10-26T13:26:06;62.44;47.67;81.05;;
45651;Laerm;31365;48.858;8.530;2022-10-26T13:28:46;59.36;45.14;75.56;;
45651;Laerm;31365;48.858;8.530;2022-10-26T13:31:53;59.95;46.97;72.38;;
45651;Laerm;31365;48.858;8.530;2022-10-26T13:34:29;60.71;46.52;75.33;;
45651;Laerm;31365;48.858;8.530;2022-10-26T13:37:20;61.09;46.71;73.29;;
45651;Laerm;31365;48.858;8.530;2022-10-26T13:39:51;61.02;47.21;73.56;;
45651;Laerm;31365;48.858;8.530;2022-10-26T13:42:28;58.77;47.36;73.06;;
45651;Laerm;31365;48.858;8.530;2022-10-26T13:45:07;61.47;45.33;79.84;;
45651;Laerm;31365;48.858;8.530;2022-10-26T13:47:44;63.40;47.02;80.35;;
45651;Laerm;31365;48.858;8.530;2022-10-26T13:50:18;61.67;45.69;75.82;;
45651;Laerm;31365;48.858;8.530;2022-10-26T13:52:52;65.20;49.60;81.25;;
45651;Laerm;31365;48.858;8.530;2022-10-26T13:55:25;62.77;46.40;80.31;;
45651;Laerm;31365;48.858;8.530;2022-10-26T13:58:10;59.10;41.75;74.10;;
45651;Laerm;31365;48.858;8.530;2022-10-26T14:01:02;62.29;40.62;77.16;;
45651;Laerm;31365;48.858;8.530;2022-10-26T14:03:32;62.69;44.94;74.72;;
45651;Laerm;31365;48.858;8.530;2022-10-26T14:06:05;63.77;46.18;77.63;;
45651;Laerm;31365;48.858;8.530;2022-10-26T14:08:33;59.59;45.72;75.84;;
45651;Laerm;31365;48.858;8.530;2022-10-26T14:11:02;60.07;44.73;77.81;;
45651;Laerm;31365;48.858;8.530;2022-10-26T14:13:33;62.82;44.03;78.35;;
45651;Laerm;31365;48.858;8.530;2022-10-26T14:16:09;64.19;45.14;79.24;;
45651;Laerm;31365;48.858;8.530;2022-10-26T14:18:45;73.19;52.06;78.90;;
45651;Laerm;31365;48.858;8.530;2022-10-26T14:21:17;72.51;51.97;78.18;;
45651;Laerm;31365;48.858;8.530;2022-10-26T14:23:49;70.09;46.98;81.76;;
45651;Laerm;31365;48.858;8.530;2022-10-26T14:28:51;63.38;43.49;76.31;;
45651;Laerm;31365;48.858;8.530;2022-10-26T14:31:25;63.32;42.59;74.44;;
45651;Laerm;31365;48.858;8.530;2022-10-26T14:33:56;63.55;48.77;79.02;;
45651;Laerm;31365;48.858;8.530;2022-10-26T14:36:29;64.86;47.95;79.79;;
45651;Laerm;31365;48.858;8.530;2022-10-26T14:39:03;70.98;42.98;90.24;;
45651;Laerm;31365;48.858;8.530;2022-10-26T14:41:34;64.69;43.04;76.49;;
45651;Laerm;31365;48.858;8.530;2022-10-26T14:44:03;67.15;49.02;85.16;;
45651;Laerm;31365;48.858;8.530;2022-10-26T14:46:34;66.03;43.72;83.02;;
45651;Laerm;31365;48.858;8.530;2022-10-26T14:49:03;62.90;42.22;76.60;;